Time;durP1;ratioP1;P1;durP2;ratioP2;P2;SDS_P1;SDS_P2;PMS_P1;PMS_P2;Temp;Humidity;BMP_temperature;BMP_pressure;BME280_temperature;BME280_humidity;BME280_pressure;Samples;Min_cycle;Max_cycle;Signal;HPM_P1;HPM_P2
2024/01/13 00:02:07;;;;;;;79.43;38.43;;;3.90;99.20;;;;;;10443774;28;20280;-63
2024/01/13 00:07:12;;;;;;;87.10;38.53;;;4.00;99.70;;;;;;10452195;28;20305;-63
2024/01/13 00:12:16;;;;;;;77.23;37.33;;;4.00;99.60;;;;;;10446113;28;20664;-62
2024/01/13 00:17:20;;;;;;;78.20;38.40;;;4.00;99.70;;;;;;10448097;28;20715;-60
2024/01/13 00:22:25;;;;;;;76.43;37.50;;;4.00;99.60;;;;;;10446535;28;20267;-65
2024/01/13 00:27:28;;;;;;;74.17;38.20;;;4.00;99.50;;;;;;10442740;28;20273;-65
2024/01/13 00:32:32;;;;;;;70.67;36.83;;;4.10;99.70;;;;;;10452144;28;20630;-64
2024/01/13 00:37:38;;;;;;;64.33;33.67;;;4.10;99.90;;;;;;10447386;28;20224;-65
2024/01/13 00:42:42;;;;;;;60.33;32.07;;;4.00;99.90;;;;;;10449451;28;20219;-63
2024/01/13 00:47:46;;;;;;;55.40;30.80;;;4.00;99.70;;;;;;10450820;28;20284;-63
2024/01/13 00:52:51;;;;;;;56.83;32.37;;;4.00;99.90;;;;;;10447403;28;21062;-64
2024/01/13 00:57:55;;;;;;;53.63;31.23;;;4.10;99.80;;;;;;10449103;28;20278;-64
2024/01/13 01:02:59;;;;;;;49.77;28.93;;;4.10;99.80;;;;;;10438836;28;20256;-67
2024/01/13 01:08:05;;;;;;;50.33;29.23;;;4.10;99.80;;;;;;10446789;28;20691;-65
2024/01/13 01:13:10;;;;;;;53.43;29.03;;;4.10;99.70;;;;;;10451687;28;20298;-65
2024/01/13 01:18:13;;;;;;;56.30;30.63;;;4.10;99.60;;;;;;10455190;28;20273;-64
2024/01/13 01:23:28;;;;;;;49.57;30.33;;;4.10;99.40;;;;;;10455079;28;20220;-64
2024/01/13 01:28:32;;;;;;;52.67;29.93;;;4.10;99.50;;;;;;10448224;28;20254;-67
2024/01/13 01:33:39;;;;;;;54.13;30.33;;;4.10;99.40;;;;;;10452381;28;20270;-65
2024/01/13 01:38:45;;;;;;;52.77;31.03;;;4.10;99.90;;;;;;10454468;28;20716;-62
2024/01/13 01:43:49;;;;;;;49.13;29.80;;;4.10;99.80;;;;;;10450492;28;20754;-64
2024/01/13 01:48:58;;;;;;;47.97;29.47;;;4.10;99.90;;;;;;10452336;28;20255;-63
2024/01/13 01:54:04;;;;;;;51.23;29.77;;;4.10;99.90;;;;;;10452210;28;20272;-64
2024/01/13 01:59:08;;;;;;;46.97;28.90;;;4.10;99.90;;;;;;10446459;28;20286;-66
2024/01/13 02:04:11;;;;;;;48.13;28.57;;;4.20;99.90;;;;;;10455237;28;20691;-64
2024/01/13 02:09:17;;;;;;;41.77;27.60;;;4.20;99.90;;;;;;10456217;28;20229;-64
2024/01/13 02:14:21;;;;;;;42.77;27.03;;;4.20;99.80;;;;;;10448909;28;20644;-60
2024/01/13 02:19:25;;;;;;;40.30;25.87;;;4.20;99.60;;;;;;10449289;28;20204;-63
2024/01/13 02:24:30;;;;;;;39.97;25.10;;;4.20;99.70;;;;;;10450701;28;20255;-62
2024/01/13 02:29:34;;;;;;;36.77;23.03;;;4.20;99.70;;;;;;10453708;28;20765;-65
2024/01/13 02:34:37;;;;;;;37.00;23.23;;;4.20;99.70;;;;;;10455777;28;20908;-63
2024/01/13 02:39:43;;;;;;;34.80;23.27;;;4.20;99.60;;;;;;10458514;28;20221;-62
2024/01/13 02:44:46;;;;;;;41.50;24.00;;;4.20;99.80;;;;;;10454587;28;20201;-65
2024/01/13 02:49:50;;;;;;;39.20;23.80;;;4.20;99.60;;;;;;10453426;28;20242;-65
2024/01/13 02:54:55;;;;;;;37.87;23.07;;;4.20;99.70;;;;;;10453174;28;20777;-61
2024/01/13 02:59:59;;;;;;;37.27;22.63;;;4.20;99.80;;;;;;10451922;28;20216;-64
2024/01/13 03:05:03;;;;;;;38.10;22.70;;;4.30;99.70;;;;;;10447473;28;20310;-64
2024/01/13 03:10:09;;;;;;;35.70;22.53;;;4.30;99.70;;;;;;10449236;28;20348;-64
2024/01/13 03:15:12;;;;;;;33.90;21.53;;;4.30;99.90;;;;;;10451356;28;20251;-61
2024/01/13 03:20:16;;;;;;;31.57;21.10;;;4.30;99.90;;;;;;10448119;28;20217;-64
2024/01/13 03:25:21;;;;;;;33.13;21.17;;;4.30;99.70;;;;;;10452038;28;20212;-62
2024/01/13 03:30:25;;;;;;;32.13;20.23;;;4.30;99.90;;;;;;10453991;28;21040;-67
2024/01/13 03:35:29;;;;;;;31.80;20.07;;;4.30;99.90;;;;;;10456697;28;20204;-65
2024/01/13 03:40:34;;;;;;;28.67;18.73;;;4.30;99.80;;;;;;10463498;28;20220;-63
2024/01/13 03:45:38;;;;;;;29.63;20.27;;;4.30;99.70;;;;;;10458194;28;20313;-65
2024/01/13 03:50:41;;;;;;;33.90;20.20;;;4.30;99.90;;;;;;10461873;28;20227;-63
2024/01/13 03:55:46;;;;;;;29.83;20.03;;;4.30;99.90;;;;;;10462372;28;20197;-63
2024/01/13 04:00:50;;;;;;;30.47;19.87;;;4.30;99.80;;;;;;10461702;28;20297;-65
2024/01/13 04:05:58;;;;;;;26.87;18.37;;;4.30;99.60;;;;;;10459459;28;20221;-64
2024/01/13 04:11:07;;;;;;;26.67;17.53;;;4.30;99.90;;;;;;10452402;28;20357;-65
2024/01/13 04:16:11;;;;;;;28.70;19.13;;;4.30;99.50;;;;;;10457287;28;20196;-64
2024/01/13 04:21:14;;;;;;;28.87;18.30;;;4.30;99.50;;;;;;10456548;28;20276;-67
2024/01/13 04:26:27;;;;;;;23.93;16.87;;;4.30;99.50;;;;;;10459596;28;20236;-63
2024/01/13 04:31:30;;;;;;;25.57;17.40;;;4.20;99.30;;;;;;10464147;28;20217;-65
2024/01/13 04:36:34;;;;;;;29.37;19.03;;;4.20;99.00;;;;;;10460151;28;20226;-63
2024/01/13 04:41:41;;;;;;;31.67;19.27;;;4.10;98.80;;;;;;10459389;28;20228;-63
2024/01/13 04:46:45;;;;;;;29.17;20.53;;;4.10;98.90;;;;;;10458915;28;20257;-65
2024/01/13 04:51:48;;;;;;;34.93;19.90;;;4.10;99.20;;;;;;10462701;28;20228;-64
2024/01/13 04:56:54;;;;;;;32.00;19.97;;;4.10;99.40;;;;;;10457386;28;21712;-63
2024/01/13 05:01:58;;;;;;;33.00;20.93;;;4.10;99.60;;;;;;10462092;28;20250;-66
2024/01/13 05:07:01;;;;;;;27.87;20.43;;;4.10;99.80;;;;;;10459953;28;20632;-63
2024/01/13 05:12:07;;;;;;;31.63;22.07;;;4.10;99.90;;;;;;10460754;28;20256;-64
2024/01/13 05:17:11;;;;;;;34.37;21.33;;;4.20;99.90;;;;;;10460828;28;20570;-64
2024/01/13 05:22:15;;;;;;;33.63;22.33;;;4.10;99.90;;;;;;10460330;28;20252;-66
2024/01/13 05:27:20;;;;;;;30.97;20.50;;;4.10;99.90;;;;;;10454381;28;20248;-62
2024/01/13 05:32:24;;;;;;;30.20;20.57;;;4.10;99.90;;;;;;10459690;28;20690;-64
2024/01/13 05:37:28;;;;;;;28.10;20.10;;;4.10;99.90;;;;;;10459977;28;20196;-63
2024/01/13 05:42:33;;;;;;;33.13;21.33;;;4.20;99.90;;;;;;10455516;28;20299;-64
2024/01/13 05:47:36;;;;;;;29.00;18.97;;;4.20;99.90;;;;;;10459884;28;21527;-65
2024/01/13 05:52:40;;;;;;;25.27;20.03;;;4.20;99.90;;;;;;10461531;28;20245;-62
2024/01/13 05:57:45;;;;;;;32.43;20.73;;;4.20;99.90;;;;;;10452517;28;20262;-63
2024/01/13 06:02:49;;;;;;;29.70;19.60;;;4.30;99.90;;;;;;10458163;28;20225;-64
2024/01/13 06:07:53;;;;;;;29.33;19.83;;;4.30;99.90;;;;;;10454688;28;20252;-65
2024/01/13 06:12:59;;;;;;;27.67;18.57;;;4.30;99.90;;;;;;10456817;28;20221;-66
2024/01/13 06:18:03;;;;;;;29.33;19.57;;;4.30;99.90;;;;;;10456740;28;20196;-62
2024/01/13 06:23:07;;;;;;;28.57;19.93;;;4.30;99.90;;;;;;10449218;28;20315;-65
2024/01/13 06:28:12;;;;;;;26.40;20.03;;;4.30;99.90;;;;;;10450787;28;20264;-62
2024/01/13 06:33:16;;;;;;;31.53;20.10;;;4.30;99.90;;;;;;10456267;28;20249;-64
2024/01/13 06:38:20;;;;;;;28.37;20.13;;;4.30;99.90;;;;;;10453740;28;20197;-63
2024/01/13 06:43:25;;;;;;;36.00;21.77;;;4.30;99.90;;;;;;10458137;28;20225;-60
2024/01/13 06:48:28;;;;;;;32.73;21.40;;;4.30;99.90;;;;;;10455642;28;20254;-64
2024/01/13 06:53:32;;;;;;;32.67;22.07;;;4.40;99.90;;;;;;10451118;28;20652;-63
2024/01/13 06:58:37;;;;;;;32.93;21.10;;;4.40;99.90;;;;;;10452598;28;20222;-65
2024/01/13 07:03:43;;;;;;;31.77;20.00;;;4.40;99.90;;;;;;10405908;28;20261;-61
2024/01/13 07:08:46;;;;;;;30.63;21.23;;;4.40;99.90;;;;;;10374974;28;20656;-64
2024/01/13 07:13:52;;;;;;;32.17;22.07;;;4.30;99.80;;;;;;10370727;28;20256;-63
2024/01/13 07:18:55;;;;;;;31.07;20.37;;;4.30;99.90;;;;;;10369496;28;20253;-65
2024/01/13 07:24:00;;;;;;;25.67;18.87;;;4.30;99.90;;;;;;10378572;28;20601;-64
2024/01/13 07:29:05;;;;;;;24.80;17.47;;;4.40;99.90;;;;;;10372787;28;20757;-64
2024/01/13 07:34:09;;;;;;;24.93;18.50;;;4.40;99.70;;;;;;10376330;28;20225;-69
2024/01/13 07:39:14;;;;;;;20.13;14.97;;;4.40;99.90;;;;;;10367144;28;20231;-64
2024/01/13 07:44:19;;;;;;;22.37;16.50;;;4.40;99.70;;;;;;10372065;28;20666;-66
2024/01/13 07:49:23;;;;;;;23.07;16.30;;;4.30;99.90;;;;;;10370007;28;20231;-65
2024/01/13 07:54:27;;;;;;;20.63;15.30;;;4.30;99.90;;;;;;10377323;28;20214;-63
2024/01/13 07:59:32;;;;;;;25.77;17.67;;;4.40;99.90;;;;;;10367885;28;20555;-64
2024/01/13 08:04:35;;;;;;;19.40;15.70;;;4.30;99.60;;;;;;10367722;28;20210;-64
2024/01/13 08:09:39;;;;;;;20.63;14.67;;;4.30;99.90;;;;;;10378961;28;20676;-63
2024/01/13 08:14:44;;;;;;;17.07;14.20;;;4.30;99.80;;;;;;10365506;28;20203;-63
2024/01/13 08:19:48;;;;;;;23.00;16.03;;;4.30;99.90;;;;;;10369025;28;20851;-65
2024/01/13 08:24:51;;;;;;;20.93;14.87;;;4.30;99.50;;;;;;10385657;28;20230;-64
2024/01/13 08:29:57;;;;;;;21.67;15.83;;;4.30;99.50;;;;;;10380864;28;20312;-63
2024/01/13 08:35:00;;;;;;;21.03;15.50;;;4.30;99.90;;;;;;10379559;28;20321;-63
2024/01/13 08:40:05;;;;;;;23.57;17.07;;;4.30;99.90;;;;;;10381550;28;20686;-63
2024/01/13 08:45:11;;;;;;;25.63;17.93;;;4.30;99.90;;;;;;10377227;28;20206;-63
2024/01/13 08:50:14;;;;;;;28.73;19.10;;;4.30;99.90;;;;;;10385512;28;20277;-66
2024/01/13 08:55:18;;;;;;;25.83;18.60;;;4.20;99.90;;;;;;10378844;28;20919;-64
2024/01/13 09:00:24;;;;;;;30.13;20.60;;;4.20;99.90;;;;;;10375674;28;20633;-66
2024/01/13 09:05:28;;;;;;;30.53;21.33;;;4.20;99.90;;;;;;10387162;28;20202;-65
2024/01/13 09:10:32;;;;;;;32.43;22.47;;;4.20;99.90;;;;;;10379280;28;20316;-64
2024/01/13 09:15:37;;;;;;;29.97;22.30;;;4.20;99.90;;;;;;10374716;28;20600;-64
2024/01/13 09:20:41;;;;;;;31.03;22.77;;;4.30;99.90;;;;;;10378078;28;20292;-64
2024/01/13 09:25:45;;;;;;;32.73;22.00;;;4.30;99.90;;;;;;10376615;28;20649;-63
2024/01/13 09:30:50;;;;;;;29.83;22.40;;;4.30;99.90;;;;;;10376037;28;20252;-65
2024/01/13 09:35:53;;;;;;;31.37;22.30;;;4.30;99.90;;;;;;10373567;28;20221;-63
2024/01/13 09:40:57;;;;;;;30.13;21.13;;;4.30;99.90;;;;;;10355365;28;20244;-62
2024/01/13 09:46:02;;;;;;;29.93;21.23;;;4.20;99.60;;;;;;10404704;28;20226;-63
2024/01/13 09:51:06;;;;;;;30.50;21.33;;;4.20;99.60;;;;;;10384624;28;20268;-62
2024/01/13 09:56:22;;;;;;;31.43;21.83;;;4.20;99.90;;;;;;10380503;28;20736;-64
2024/01/13 10:01:28;;;;;;;35.10;22.10;;;4.20;99.90;;;;;;10379685;28;20283;-64
2024/01/13 10:06:38;;;;;;;29.77;22.30;;;4.20;99.90;;;;;;10373204;28;20874;-64
2024/01/13 10:11:43;;;;;;;33.67;23.33;;;4.10;99.90;;;;;;10378281;28;20322;-64
2024/01/13 10:16:48;;;;;;;30.57;22.70;;;4.20;99.90;;;;;;10379748;28;20197;-64
2024/01/13 10:21:53;;;;;;;45.30;28.20;;;4.20;99.90;;;;;;10375794;28;20217;-63
2024/01/13 10:26:57;;;;;;;32.23;23.70;;;4.20;99.90;;;;;;10376897;28;20207;-64
2024/01/13 10:32:02;;;;;;;29.83;22.70;;;4.30;99.90;;;;;;10379437;28;20567;-65
2024/01/13 10:37:10;;;;;;;32.23;23.37;;;4.30;99.90;;;;;;10370140;28;20288;-65
2024/01/13 10:42:19;;;;;;;32.90;23.53;;;4.30;99.90;;;;;;10372764;28;20226;-64
2024/01/13 10:47:30;;;;;;;31.60;22.53;;;4.30;99.90;;;;;;10378278;28;20202;-65
2024/01/13 10:53:00;;;;;;;30.83;22.50;;;4.30;99.90;;;;;;10367843;28;20252;-65
2024/01/13 10:58:04;;;;;;;32.07;23.23;;;4.20;99.90;;;;;;10372047;28;20201;-65
2024/01/13 11:03:11;;;;;;;29.87;21.90;;;4.30;99.90;;;;;;10379452;28;20252;-65
2024/01/13 11:08:15;;;;;;;27.73;21.00;;;4.30;99.90;;;;;;10374684;28;20965;-63
2024/01/13 11:13:22;;;;;;;28.57;21.83;;;4.30;99.90;;;;;;10374410;28;20225;-64
2024/01/13 11:18:28;;;;;;;26.73;20.03;;;4.40;99.90;;;;;;10368773;28;20202;-64
2024/01/13 11:23:40;;;;;;;27.87;20.53;;;4.40;99.90;;;;;;10370126;28;20645;-64
2024/01/13 11:28:51;;;;;;;25.70;19.57;;;4.40;99.90;;;;;;10374351;28;20585;-64
2024/01/13 11:33:56;;;;;;;25.60;18.33;;;4.40;99.90;;;;;;10371509;28;20226;-64
2024/01/13 11:39:01;;;;;;;25.33;19.10;;;4.40;99.90;;;;;;10378472;28;20210;-64
2024/01/13 11:44:05;;;;;;;26.37;19.27;;;4.40;99.90;;;;;;10369523;28;20684;-64
2024/01/13 11:49:11;;;;;;;23.00;18.23;;;4.30;99.90;;;;;;10369961;28;20280;-64
2024/01/13 11:54:15;;;;;;;39.60;27.23;;;4.30;99.90;;;;;;10371658;28;20816;-64
2024/01/13 11:59:19;;;;;;;30.87;21.90;;;4.30;99.90;;;;;;10382316;28;20211;-64
2024/01/13 12:04:28;;;;;;;27.07;19.63;;;4.40;99.90;;;;;;10376069;28;20264;-63
2024/01/13 12:09:32;;;;;;;24.47;17.40;;;4.40;99.90;;;;;;10385760;28;20642;-65
2024/01/13 12:14:39;;;;;;;23.60;17.57;;;4.40;99.90;;;;;;10393088;28;20210;-64
2024/01/13 12:19:45;;;;;;;24.03;18.40;;;4.30;99.90;;;;;;10384130;28;20748;-64
2024/01/13 12:24:50;;;;;;;28.93;19.13;;;4.30;99.90;;;;;;10378652;28;20211;-65
2024/01/13 12:29:56;;;;;;;26.00;20.57;;;4.30;99.90;;;;;;10376765;28;20246;-65
2024/01/13 12:35:03;;;;;;;26.80;20.33;;;4.30;99.90;;;;;;10382004;28;20201;-66
2024/01/13 12:40:08;;;;;;;28.00;20.80;;;4.40;99.90;;;;;;10381121;28;20274;-65
2024/01/13 12:45:12;;;;;;;28.30;19.67;;;4.40;99.90;;;;;;10380975;28;20263;-65
2024/01/13 12:50:18;;;;;;;24.83;19.70;;;4.40;99.90;;;;;;10381831;28;20312;-65
2024/01/13 12:55:22;;;;;;;24.00;19.37;;;4.40;99.90;;;;;;10379404;28;20565;-65
2024/01/13 13:00:29;;;;;;;28.27;20.03;;;4.30;99.90;;;;;;10379329;28;20207;-65
2024/01/13 13:05:34;;;;;;;27.43;19.77;;;4.40;99.90;;;;;;10374563;28;20298;-66
2024/01/13 13:10:38;;;;;;;24.90;18.20;;;4.30;99.90;;;;;;10374258;28;20253;-66
2024/01/13 13:15:41;;;;;;;26.17;18.70;;;4.30;99.90;;;;;;10371143;28;20198;-66
2024/01/13 13:20:47;;;;;;;24.43;19.13;;;4.30;99.90;;;;;;10379799;28;20776;-65
2024/01/13 13:25:52;;;;;;;25.40;20.03;;;4.30;99.90;;;;;;10371717;28;20266;-65
2024/01/13 13:30:56;;;;;;;28.07;20.53;;;4.30;99.90;;;;;;10373403;28;20258;-64
2024/01/13 13:36:02;;;;;;;30.17;20.60;;;4.30;99.90;;;;;;10374751;28;20208;-65
2024/01/13 13:41:06;;;;;;;27.40;20.67;;;4.30;99.90;;;;;;10373687;28;20272;-65
2024/01/13 13:46:11;;;;;;;29.70;21.60;;;4.30;99.90;;;;;;10371452;28;20257;-65
2024/01/13 13:51:16;;;;;;;31.40;22.60;;;4.30;99.90;;;;;;10376496;28;20230;-65
2024/01/13 13:56:20;;;;;;;31.17;24.10;;;4.30;99.90;;;;;;10382915;28;20206;-64
2024/01/13 14:01:23;;;;;;;34.37;24.50;;;4.30;99.90;;;;;;10378494;28;20223;-63
2024/01/13 14:06:28;;;;;;;32.87;23.40;;;4.30;99.90;;;;;;10377166;28;20563;-64
2024/01/13 14:11:33;;;;;;;33.07;23.80;;;4.30;99.90;;;;;;10377938;28;20225;-65
2024/01/13 14:16:37;;;;;;;36.73;24.90;;;4.20;99.90;;;;;;10379294;28;20241;-64
2024/01/13 14:21:42;;;;;;;34.63;25.47;;;4.20;99.90;;;;;;10374079;28;20218;-65
2024/01/13 14:26:46;;;;;;;36.60;25.67;;;4.20;99.90;;;;;;10371164;28;20679;-64
2024/01/13 14:31:50;;;;;;;37.10;26.33;;;4.20;99.90;;;;;;10370781;28;20583;-65
2024/01/13 14:36:55;;;;;;;37.93;27.13;;;4.20;99.90;;;;;;10375263;28;20207;-65
2024/01/13 14:41:59;;;;;;;38.60;27.80;;;4.20;99.90;;;;;;10383485;28;20222;-64
2024/01/13 14:47:03;;;;;;;42.53;30.33;;;4.20;99.90;;;;;;10376190;28;20248;-64
2024/01/13 14:52:09;;;;;;;41.70;28.70;;;4.20;99.90;;;;;;10378905;28;20395;-64
2024/01/13 14:57:13;;;;;;;40.23;28.67;;;4.30;99.90;;;;;;10377796;28;20235;-64
2024/01/13 15:02:18;;;;;;;42.33;28.30;;;4.30;99.90;;;;;;10380197;28;20284;-64
2024/01/13 15:07:23;;;;;;;40.37;28.40;;;4.30;99.90;;;;;;10368299;28;20214;-64
2024/01/13 15:12:27;;;;;;;42.47;28.10;;;4.30;99.90;;;;;;10377477;28;20252;-65
2024/01/13 15:17:32;;;;;;;39.13;27.13;;;4.30;99.90;;;;;;10380319;28;20336;-65
2024/01/13 15:22:38;;;;;;;39.27;26.63;;;4.30;99.90;;;;;;10373807;28;20278;-65
2024/01/13 15:27:41;;;;;;;38.57;26.63;;;4.30;99.90;;;;;;10365081;28;20197;-65
2024/01/13 15:32:52;;;;;;;39.67;26.27;;;4.30;99.90;;;;;;10372814;28;20750;-65
2024/01/13 15:37:58;;;;;;;35.90;25.53;;;4.30;99.90;;;;;;10373474;28;20230;-64
2024/01/13 15:43:03;;;;;;;34.23;24.10;;;4.30;99.90;;;;;;10374237;28;20268;-64
2024/01/13 15:48:07;;;;;;;35.70;24.37;;;4.30;99.90;;;;;;10377022;28;20210;-64
2024/01/13 15:53:12;;;;;;;35.00;24.83;;;4.30;99.90;;;;;;10376080;28;20918;-64
2024/01/13 15:58:16;;;;;;;34.13;24.30;;;4.20;99.90;;;;;;10369856;28;20265;-65
2024/01/13 16:03:19;;;;;;;36.83;25.00;;;4.20;99.90;;;;;;10368610;28;20241;-65
2024/01/13 16:08:24;;;;;;;35.43;24.57;;;4.20;99.90;;;;;;10382257;28;20273;-64
2024/01/13 16:13:28;;;;;;;33.40;24.23;;;4.20;99.90;;;;;;10380768;28;20923;-64
2024/01/13 16:18:35;;;;;;;33.80;23.50;;;4.20;99.90;;;;;;10366609;28;20200;-63
2024/01/13 16:23:41;;;;;;;38.47;32.70;;;4.20;99.90;;;;;;10365454;28;20524;-62
2024/01/13 16:28:45;;;;;;;38.23;26.13;;;4.30;99.90;;;;;;10368084;28;20731;-62
2024/01/13 16:33:49;;;;;;;38.67;26.20;;;4.30;99.90;;;;;;10367551;28;20219;-62
2024/01/13 16:38:55;;;;;;;35.67;24.30;;;4.20;99.90;;;;;;10368453;28;20226;-61
2024/01/13 16:43:58;;;;;;;38.63;25.57;;;4.20;99.90;;;;;;10371212;28;20237;-60
2024/01/13 16:49:02;;;;;;;39.47;25.30;;;4.10;99.90;;;;;;10374331;28;20199;-62
2024/01/13 16:54:07;;;;;;;39.13;25.37;;;4.10;99.90;;;;;;10373600;28;20252;-61
2024/01/13 16:59:11;;;;;;;38.47;26.20;;;4.00;99.90;;;;;;10374083;28;20255;-61
2024/01/13 17:04:15;;;;;;;39.80;26.33;;;4.00;99.90;;;;;;10373387;28;20269;-61
2024/01/13 17:09:20;;;;;;;45.83;27.13;;;4.00;99.90;;;;;;10373924;28;20746;-62
2024/01/13 17:14:24;;;;;;;43.17;26.13;;;4.00;99.90;;;;;;10403652;28;20211;-64
2024/01/13 17:19:28;;;;;;;40.37;25.93;;;4.00;99.90;;;;;;10372581;28;20210;-63
2024/01/13 17:24:33;;;;;;;45.50;26.37;;;4.00;99.90;;;;;;10373654;28;20203;-63
2024/01/13 17:29:37;;;;;;;42.50;26.73;;;4.00;99.90;;;;;;10372782;28;20226;-63
2024/01/13 17:34:40;;;;;;;43.03;26.67;;;4.00;99.90;;;;;;10372494;28;20582;-64
2024/01/13 17:39:47;;;;;;;40.47;25.40;;;4.00;99.90;;;;;;10372361;28;20219;-66
2024/01/13 17:44:56;;;;;;;40.73;27.00;;;4.00;99.90;;;;;;10372391;28;20190;-65
2024/01/13 17:50:00;;;;;;;42.33;27.87;;;4.00;99.90;;;;;;10371836;28;20268;-62
2024/01/13 17:55:06;;;;;;;42.00;26.30;;;4.00;99.90;;;;;;10371882;28;20219;-63
2024/01/13 18:00:12;;;;;;;42.47;26.63;;;4.00;99.90;;;;;;10371433;28;20219;-64
2024/01/13 18:05:17;;;;;;;42.67;26.90;;;3.90;99.90;;;;;;10371317;28;20230;-62
2024/01/13 18:10:22;;;;;;;44.07;27.80;;;3.90;99.90;;;;;;10371150;28;20226;-63
2024/01/13 18:15:26;;;;;;;45.10;28.93;;;3.90;99.90;;;;;;10370999;28;20244;-63
2024/01/13 18:20:30;;;;;;;43.40;29.67;;;3.90;99.90;;;;;;10370722;28;20222;-64
2024/01/13 18:25:35;;;;;;;44.90;28.97;;;3.90;99.90;;;;;;10370940;28;20728;-64
2024/01/13 18:30:39;;;;;;;48.73;30.87;;;3.90;99.90;;;;;;10370945;28;20221;-64
2024/01/13 18:35:43;;;;;;;47.93;31.27;;;3.90;99.90;;;;;;10371306;28;20215;-66
2024/01/13 18:40:48;;;;;;;46.47;27.67;;;3.90;99.90;;;;;;10370137;28;20695;-64
2024/01/13 18:45:52;;;;;;;47.00;29.07;;;3.90;99.90;;;;;;10369586;28;20214;-64
2024/01/13 18:50:55;;;;;;;44.17;27.07;;;3.90;99.90;;;;;;10369255;28;20249;-63
2024/01/13 18:56:00;;;;;;;48.23;30.70;;;3.80;99.90;;;;;;10369085;28;20288;-64
2024/01/13 19:01:05;;;;;;;47.23;30.47;;;3.80;99.90;;;;;;10368967;28;20292;-65
2024/01/13 19:06:08;;;;;;;48.27;31.60;;;3.80;99.90;;;;;;10368446;28;20199;-66
2024/01/13 19:11:13;;;;;;;50.57;29.77;;;3.80;99.90;;;;;;10368629;28;20227;-64
2024/01/13 19:16:17;;;;;;;49.87;30.93;;;3.80;99.90;;;;;;10369128;28;20268;-65
2024/01/13 19:21:21;;;;;;;53.40;32.47;;;3.80;99.90;;;;;;10385220;28;20221;-65
2024/01/13 19:26:26;;;;;;;65.57;46.67;;;3.80;99.90;;;;;;10380244;28;20505;-62
2024/01/13 19:31:31;;;;;;;46.30;31.27;;;4.00;99.90;;;;;;10368286;28;20498;-62
2024/01/13 19:36:34;;;;;;;43.87;29.53;;;4.00;99.90;;;;;;10403234;28;20723;-62
2024/01/13 19:41:39;;;;;;;43.27;28.77;;;4.00;99.90;;;;;;10389149;28;20273;-64
2024/01/13 19:46:43;;;;;;;41.10;26.07;;;3.90;99.90;;;;;;10366219;28;20202;-64
2024/01/13 19:51:47;;;;;;;46.90;28.70;;;3.80;99.90;;;;;;10365829;28;20234;-63
2024/01/13 19:56:52;;;;;;;46.53;26.97;;;3.70;99.90;;;;;;10366128;28;20274;-64
2024/01/13 20:01:56;;;;;;;44.57;29.00;;;3.70;99.90;;;;;;10366325;28;20216;-63
2024/01/13 20:06:59;;;;;;;45.40;28.87;;;3.70;99.90;;;;;;10370112;28;20211;-67
2024/01/13 20:12:05;;;;;;;47.80;29.03;;;3.70;99.90;;;;;;10370006;28;21577;-67
2024/01/13 20:17:12;;;;;;;51.87;31.00;;;3.70;99.90;;;;;;10369777;28;20197;-66
2024/01/13 20:22:16;;;;;;;55.67;32.70;;;3.70;99.90;;;;;;10377958;28;20244;-66
2024/01/13 20:27:23;;;;;;;57.10;33.57;;;3.60;99.90;;;;;;10375179;28;20669;-68
2024/01/13 20:32:28;;;;;;;60.67;33.83;;;3.70;99.90;;;;;;10373954;28;20284;-66
2024/01/13 20:37:31;;;;;;;59.30;33.57;;;3.70;99.90;;;;;;10378709;28;20198;-67
2024/01/13 20:42:36;;;;;;;58.07;31.83;;;3.60;99.90;;;;;;10377511;28;20304;-67
2024/01/13 20:47:40;;;;;;;60.60;34.73;;;3.60;99.90;;;;;;10380957;28;20545;-66
2024/01/13 20:52:44;;;;;;;56.33;31.60;;;3.50;99.90;;;;;;10377184;28;20337;-65
2024/01/13 20:57:49;;;;;;;64.03;35.20;;;3.60;99.90;;;;;;10380384;28;20196;-67
2024/01/13 21:02:53;;;;;;;58.80;34.47;;;3.50;99.90;;;;;;10374881;28;20626;-67
2024/01/13 21:07:57;;;;;;;55.73;32.63;;;3.50;99.90;;;;;;10375940;28;20234;-65
2024/01/13 21:13:04;;;;;;;59.20;33.37;;;3.50;99.90;;;;;;10373619;28;20249;-66
2024/01/13 21:18:08;;;;;;;58.50;34.20;;;3.50;99.90;;;;;;10379468;28;20224;-67
2024/01/13 21:23:12;;;;;;;58.87;31.93;;;3.50;99.90;;;;;;10376123;28;20221;-67
2024/01/13 21:28:17;;;;;;;56.57;31.47;;;3.50;99.90;;;;;;10385893;28;20208;-65
2024/01/13 21:33:20;;;;;;;56.40;32.23;;;3.40;99.90;;;;;;10373287;28;20247;-65
2024/01/13 21:38:24;;;;;;;57.20;31.03;;;3.40;99.90;;;;;;10370565;28;20669;-66
2024/01/13 21:43:31;;;;;;;55.43;30.23;;;3.50;99.90;;;;;;10369331;28;20220;-66
2024/01/13 21:48:35;;;;;;;58.23;31.93;;;3.50;99.90;;;;;;10378148;28;20201;-66
2024/01/13 21:53:39;;;;;;;54.10;30.00;;;3.50;99.90;;;;;;10374616;28;20285;-66
2024/01/13 21:58:44;;;;;;;52.93;30.53;;;3.50;99.90;;;;;;10373457;28;20664;-65
2024/01/13 22:03:49;;;;;;;58.90;31.80;;;3.50;99.90;;;;;;10375918;28;20303;-68
2024/01/13 22:08:52;;;;;;;54.20;30.23;;;3.50;99.90;;;;;;10380757;28;20671;-66
2024/01/13 22:13:58;;;;;;;54.73;30.47;;;3.50;99.90;;;;;;10375799;28;20277;-66
2024/01/13 22:19:03;;;;;;;56.70;31.17;;;3.50;99.90;;;;;;10371104;28;20272;-66
2024/01/13 22:24:06;;;;;;;54.70;28.93;;;3.40;99.90;;;;;;10368906;28;20324;-68
2024/01/13 22:29:12;;;;;;;53.47;29.53;;;3.40;99.90;;;;;;10370562;28;20287;-65
2024/01/13 22:34:15;;;;;;;54.77;28.93;;;3.40;99.90;;;;;;10371677;28;20597;-68
2024/01/13 22:39:19;;;;;;;53.33;29.27;;;3.40;99.90;;;;;;10378013;28;20191;-68
2024/01/13 22:44:24;;;;;;;55.27;29.50;;;3.40;99.90;;;;;;10371234;28;20204;-67
2024/01/13 22:49:28;;;;;;;50.00;28.13;;;3.40;99.90;;;;;;10374026;28;20202;-66
2024/01/13 22:54:32;;;;;;;56.13;30.10;;;3.50;99.90;;;;;;10374335;28;20224;-67
2024/01/13 22:59:38;;;;;;;57.03;29.90;;;3.40;99.90;;;;;;10372697;28;20236;-66
2024/01/13 23:04:41;;;;;;;52.73;29.67;;;3.50;99.90;;;;;;10379827;28;20244;-68
2024/01/13 23:09:45;;;;;;;58.03;29.83;;;3.50;99.90;;;;;;10367454;28;20307;-67
2024/01/13 23:14:52;;;;;;;53.97;27.33;;;3.50;99.90;;;;;;10375717;28;20271;-66
2024/01/13 23:19:55;;;;;;;53.93;29.33;;;3.50;99.90;;;;;;10375525;28;20225;-66
2024/01/13 23:24:59;;;;;;;58.73;30.93;;;3.50;99.90;;;;;;10373984;28;20199;-66
2024/01/13 23:30:06;;;;;;;59.73;31.20;;;3.50;99.90;;;;;;10369902;28;20249;-65
2024/01/13 23:35:10;;;;;;;58.80;30.70;;;3.50;99.90;;;;;;10370927;28;20241;-66
2024/01/13 23:40:15;;;;;;;55.33;28.40;;;3.50;99.90;;;;;;10375034;28;20218;-66
2024/01/13 23:45:20;;;;;;;56.90;30.67;;;3.50;99.90;;;;;;10369312;28;20752;-66
2024/01/13 23:50:24;;;;;;;57.10;30.63;;;3.50;99.90;;;;;;10378089;28;20221;-65
2024/01/13 23:55:28;;;;;;;59.77;30.00;;;3.50;99.90;;;;;;10374711;28;20786;-66
